TimeMDT,TemperatureF,Dew PointF,Humidity,Sea Level PressureIn,VisibilityMPH,Wind Direction,Wind SpeedMPH,Gust SpeedMPH,PrecipitationIn,Events,Conditions,WindDirDegrees,DateUTC
12:53 AM,39.9,21.0,47,29.68,10.0,Calm,Calm,-,N/A,,Clear,0,2012-10-17 06:53:00
1:53 AM,37.9,21.0,51,29.70,10.0,South,6.9,-,N/A,,Clear,170,2012-10-17 07:53:00
2:53 AM,37.9,16.0,41,29.75,10.0,ENE,5.8,-,N/A,,Clear,60,2012-10-17 08:53:00
3:53 AM,39.0,10.9,32,29.78,10.0,West,10.4,20.7,N/A,,Clear,270,2012-10-17 09:53:00
4:53 AM,37.0,10.0,33,29.83,10.0,West,9.2,16.1,N/A,,Clear,270,2012-10-17 10:53:00
5:53 AM,37.0,10.0,33,29.87,10.0,North,9.2,18.4,N/A,,Clear,10,2012-10-17 11:53:00
6:53 AM,35.1,12.0,39,29.90,10.0,WNW,9.2,-,N/A,,Clear,290,2012-10-17 12:53:00
7:53 AM,32.0,10.9,42,29.97,10.0,West,8.1,-,N/A,,Clear,270,2012-10-17 13:53:00
8:53 AM,37.9,12.0,35,29.96,10.0,ESE,4.6,-,N/A,,Clear,120,2012-10-17 14:53:00
9:53 AM,42.1,9.0,26,29.96,10.0,ESE,4.6,-,N/A,,Clear,110,2012-10-17 15:53:00
10:53 AM,45.0,8.1,22,29.94,10.0,North,8.1,-,N/A,,Clear,10,2012-10-17 16:53:00
11:53 AM,46.0,9.0,22,29.93,10.0,Variable,3.5,-,N/A,,Clear,0,2012-10-17 17:53:00
12:53 PM,46.9,10.0,22,29.92,10.0,Calm,Calm,-,N/A,,Clear,0,2012-10-17 18:53:00
1:53 PM,48.9,10.9,22,29.91,10.0,WNW,8.1,-,N/A,,Clear,300,2012-10-17 19:53:00
2:53 PM,50.0,9.0,19,29.89,10.0,Calm,Calm,-,N/A,,Clear,0,2012-10-17 20:53:00
3:53 PM,53.1,7.0,16,29.88,10.0,Calm,Calm,-,N/A,,Clear,0,2012-10-17 21:53:00
4:53 PM,51.1,6.1,16,29.88,10.0,NNW,21.9,34.5,N/A,,Clear,340,2012-10-17 22:53:00
5:01 PM,51.8,6.8,16,29.92,10.0,North,19.6,32.2,N/A,,Clear,350,2012-10-17 23:01:00
5:53 PM,48.9,8.1,19,29.92,10.0,North,9.2,-,N/A,,Clear,350,2012-10-17 23:53:00
6:53 PM,45.0,8.1,22,29.98,10.0,NW,11.5,20.7,N/A,,Clear,310,2012-10-18 00:53:00
7:53 PM,44.1,9.0,24,30.02,10.0,NW,20.7,31.1,N/A,,Clear,320,2012-10-18 01:53:00
8:53 PM,43.0,10.0,26,30.03,10.0,WNW,19.6,27.6,N/A,,Clear,300,2012-10-18 02:53:00
9:53 PM,42.1,10.9,28,30.04,10.0,WNW,19.6,23.0,N/A,,Clear,290,2012-10-18 03:53:00
10:53 PM,41.0,10.9,29,30.07,10.0,WNW,10.4,-,N/A,,Clear,290,2012-10-18 04:53:00
11:53 PM,36.0,10.0,34,30.11,10.0,Calm,Calm,-,N/A,,Clear,0,2012-10-18 05:53:00